Booker, Texas
Current Conditions -  °F | °C
As of 10:35 AM on Sunday 21 Dec 2014 (Local Time) from KPYX Reporting Station
Overcast Overcast  
Wind Chill: 36°   Ceiling: 1100
Heat Index: 43°   Visibility: 10mi
Dew Point: 37°   Wind: 13mph
Humidity: 81%   Direction: 190°S
Pressure: 29.82"   Gusts: NA
Location:  36.45°N, 100.54°W
Report Text: KPYX 211635Z AUTO 19011KT 10SM OVC011 06/03 A2982 RMK AO2 T00600029
Loading
Personal Weather Stations






























Interactive Weather Map New forecast layout! Learn more

10-Day Weather Forecast

Advertisements
Track Severe Weather on mobile